createdAt,value
2024-04-10T00:01:40.163Z,0.98
2024-04-10T00:04:45.626Z,0.65
2024-04-10T00:07:48.571Z,1.70
2024-04-10T00:10:54.287Z,0.90
2024-04-10T00:13:59.825Z,0.82
2024-04-10T00:17:05.455Z,0.90
2024-04-10T00:20:11.419Z,1.10
2024-04-10T00:23:14.128Z,0.80
2024-04-10T00:26:19.976Z,1.00
2024-04-10T00:29:22.897Z,0.90
2024-04-10T00:32:34.703Z,1.00
2024-04-10T00:35:41.768Z,1.08
2024-04-10T00:38:47.768Z,1.08
2024-04-10T00:41:50.388Z,1.15
2024-04-10T00:44:57.722Z,0.93
2024-04-10T00:48:04.066Z,0.75
2024-04-10T00:51:11.594Z,1.00
2024-04-10T00:54:14.232Z,0.95
2024-04-10T00:57:22.044Z,1.00
2024-04-10T01:00:25.204Z,0.95
2024-04-10T01:03:33.616Z,1.10
2024-04-10T01:06:39.112Z,1.30
2024-04-10T01:09:41.724Z,1.27
2024-04-10T01:12:47.185Z,1.10
2024-04-10T01:15:49.888Z,1.10
2024-04-10T01:18:57.728Z,1.27
2024-04-10T01:22:04.082Z,1.20
2024-04-10T01:25:12.065Z,0.90
2024-04-10T01:28:14.974Z,1.20
2024-04-10T01:31:20.219Z,1.33
2024-04-10T01:34:25.511Z,1.40
2024-04-10T01:37:31.951Z,1.42
2024-04-10T01:40:46.888Z,1.20
2024-04-10T01:43:49.646Z,1.10
2024-04-10T01:46:55.704Z,1.10
2024-04-10T01:49:58.356Z,1.08
2024-04-10T01:53:03.778Z,1.05
2024-04-10T01:56:09.325Z,1.42
2024-04-10T01:59:14.762Z,1.25
2024-04-10T02:02:18.816Z,1.30
2024-04-10T02:05:24.132Z,1.25
2024-04-10T02:08:27.010Z,1.60
2024-04-10T02:11:39.817Z,1.23
2024-04-10T02:14:42.501Z,1.67
2024-04-10T02:17:48.260Z,1.58
2024-04-10T02:21:04.648Z,1.60
2024-04-10T02:24:09.111Z,1.75
2024-04-10T02:27:17.013Z,1.25
2024-04-10T02:30:20.392Z,1.52
2024-04-10T02:33:26.027Z,1.75
2024-04-10T02:36:29.482Z,1.80
2024-04-10T02:39:36.237Z,1.52
2024-04-10T02:42:52.837Z,1.60
2024-04-10T02:45:58.775Z,1.20
2024-04-10T02:49:01.578Z,1.38
2024-04-10T02:52:07.795Z,1.40
2024-04-10T02:55:10.420Z,1.50
2024-04-10T02:58:18.245Z,1.63
2024-04-10T03:01:23.855Z,1.83
2024-04-10T03:04:29.205Z,1.45
2024-04-10T03:07:38.612Z,1.83
2024-04-10T03:10:43.956Z,1.40
2024-04-10T03:14:10.863Z,1.33
2024-04-10T03:17:17.900Z,1.40
2024-04-10T03:20:23.470Z,1.23
2024-04-10T03:23:26.248Z,1.30
2024-04-10T03:26:31.763Z,1.33
2024-04-10T03:29:38.152Z,1.48
2024-04-10T03:32:43.968Z,0.90
2024-04-10T03:35:47.327Z,0.98
2024-04-10T03:38:53.622Z,0.80
2024-04-10T03:41:59.772Z,0.77
2024-04-10T03:45:08.406Z,0.68
2024-04-10T03:48:14.087Z,0.85
2024-04-10T03:51:21.219Z,0.60
2024-04-10T03:54:26.769Z,0.57
2024-04-10T03:57:36.462Z,0.50
2024-04-10T04:00:44.665Z,0.60
2024-04-10T04:03:47.353Z,0.90
2024-04-10T04:06:53.357Z,0.75
2024-04-10T04:09:56.212Z,0.50
2024-04-10T04:13:01.545Z,0.70
2024-04-10T04:16:09.327Z,0.90
2024-04-10T04:19:14.941Z,0.63
2024-04-10T04:22:20.493Z,0.77
2024-04-10T04:27:13.006Z,0.73
2024-04-10T04:30:16.562Z,0.50
2024-04-10T04:33:22.537Z,0.68
2024-04-10T04:36:27.937Z,0.63
2024-04-10T04:39:34.341Z,0.52
2024-04-10T04:42:39.656Z,0.73
2024-04-10T04:45:45.115Z,0.77
2024-04-10T04:48:51.708Z,0.70
2024-04-10T04:51:54.423Z,0.70
2024-04-10T04:55:01.363Z,0.65
2024-04-10T04:58:07.918Z,0.57
2024-04-10T05:01:13.093Z,0.63
2024-04-10T05:04:34.621Z,1.05
2024-04-10T05:07:40.053Z,1.17
2024-04-10T05:10:46.183Z,0.60
2024-04-10T05:13:51.482Z,0.65
2024-04-10T05:16:56.809Z,0.63
2024-04-10T05:20:00.175Z,0.60
2024-04-10T05:23:05.962Z,0.70
2024-04-10T05:26:08.657Z,0.80
2024-04-10T05:29:16.782Z,0.75
2024-04-10T05:32:20.148Z,0.80
2024-04-10T05:35:26.912Z,0.70
2024-04-10T05:38:31.229Z,1.58
2024-04-10T05:41:37.841Z,0.70
2024-04-10T05:44:43.277Z,0.80
2024-04-10T05:47:53.925Z,0.82
2024-04-10T05:51:10.258Z,0.88
2024-04-10T05:54:15.834Z,0.93
2024-04-10T05:57:19.286Z,0.80
2024-04-10T06:00:27.759Z,0.70
2024-04-10T06:03:30.750Z,1.20
2024-04-10T06:06:37.372Z,0.85
2024-04-10T06:09:40.355Z,1.00
2024-04-10T06:12:45.587Z,0.82
2024-04-10T06:15:58.722Z,0.77
2024-04-10T06:19:04.342Z,0.80
2024-04-10T06:22:09.558Z,0.65
2024-04-10T06:25:15.081Z,0.70
2024-04-10T06:28:20.376Z,0.93
2024-04-10T06:31:28.301Z,0.90
2024-04-10T06:34:37.044Z,1.00
2024-04-10T06:37:39.953Z,0.63
2024-04-10T06:40:48.468Z,0.85
2024-04-10T06:43:53.726Z,0.60
2024-04-10T06:46:59.257Z,0.82
2024-04-10T06:50:05.526Z,1.08
2024-04-10T06:53:10.853Z,0.90
2024-04-10T06:56:16.890Z,0.73
2024-04-10T06:59:23.165Z,0.82
2024-04-10T07:02:28.637Z,1.50
2024-04-10T07:05:36.408Z,0.80
2024-04-10T07:08:45.040Z,0.80
2024-04-10T07:11:51.754Z,0.95
2024-04-10T07:14:54.745Z,1.00
2024-04-10T07:18:02.616Z,0.65
2024-04-10T07:21:06.460Z,0.77
2024-04-10T07:24:12.449Z,1.00
2024-04-10T07:27:18.684Z,0.80
2024-04-10T07:30:27.018Z,1.02
2024-04-10T07:33:39.390Z,0.82
2024-04-10T07:36:47.707Z,0.93
2024-04-10T07:39:53.765Z,0.88
2024-04-10T07:42:58.999Z,1.20
2024-04-10T07:46:07.490Z,0.88
2024-04-10T07:49:16.583Z,1.08
2024-04-10T07:52:19.434Z,0.98
2024-04-10T07:55:26.322Z,0.85
2024-04-10T07:58:29.263Z,1.02
2024-04-10T08:01:34.685Z,1.20
2024-04-10T08:04:39.867Z,0.93
2024-04-10T08:07:45.334Z,0.90
2024-04-10T08:10:48.762Z,1.65
2024-04-10T08:13:54.236Z,1.13
2024-04-10T08:16:56.856Z,0.85
2024-04-10T08:20:05.040Z,1.33
2024-04-10T08:23:07.891Z,0.88
2024-04-10T08:26:14.646Z,0.88
2024-04-10T08:29:22.683Z,0.95
2024-04-10T08:32:25.464Z,0.90
2024-04-10T08:35:33.337Z,1.40
2024-04-10T08:38:38.712Z,0.98
2024-04-10T08:41:44.876Z,0.75
2024-04-10T08:44:52.743Z,1.80
2024-04-10T08:47:58.584Z,0.95
2024-04-10T08:51:06.942Z,1.48
2024-04-10T08:54:12.705Z,1.50
2024-04-10T08:57:15.338Z,1.52
2024-04-10T09:00:23.158Z,1.30
2024-04-10T09:03:32.257Z,1.13
2024-04-10T09:06:40.944Z,1.15
2024-04-10T09:09:43.902Z,1.10
2024-04-10T09:12:49.085Z,1.38
2024-04-10T09:15:57.967Z,1.35
2024-04-10T09:19:12.198Z,1.23
2024-04-10T09:22:21.064Z,0.82
2024-04-10T09:25:24.541Z,1.20
2024-04-10T09:28:30.021Z,1.23
2024-04-10T09:31:34.085Z,1.17
2024-04-10T09:34:40.892Z,1.50
2024-04-10T09:37:54.915Z,0.93
2024-04-10T09:41:03.499Z,1.20
2024-04-10T09:44:06.620Z,0.80
2024-04-10T09:47:13.221Z,0.93
2024-04-10T09:50:19.329Z,0.80
2024-04-10T09:53:28.669Z,1.15
2024-04-10T09:56:33.996Z,0.82
2024-04-10T09:59:36.921Z,1.30
2024-04-10T10:02:42.776Z,1.25
2024-04-10T10:05:47.079Z,1.20
2024-04-10T10:08:56.135Z,0.95
2024-04-10T10:11:59.178Z,0.93
2024-04-10T10:15:14.384Z,1.23
2024-04-10T10:18:33.418Z,0.82
2024-04-10T10:21:37.585Z,1.23
2024-04-10T10:24:45.398Z,0.90
2024-04-10T10:27:48.009Z,0.98
2024-04-10T10:30:53.139Z,1.20
2024-04-10T10:34:03.180Z,1.05
2024-04-10T10:37:08.033Z,0.93
2024-04-10T10:40:20.512Z,1.05
2024-04-10T10:43:23.384Z,1.02
2024-04-10T10:46:28.787Z,0.80
2024-04-10T10:49:35.137Z,0.90
2024-04-10T10:52:40.597Z,0.80
2024-04-10T10:55:54.630Z,1.02
2024-04-10T10:59:13.665Z,1.33
2024-04-10T11:02:17.389Z,0.70
2024-04-10T11:05:22.926Z,0.88
2024-04-10T11:08:25.897Z,1.00
2024-04-10T11:11:33.834Z,0.88
2024-04-10T11:14:37.203Z,0.82
2024-04-10T11:17:43.673Z,0.80
2024-04-10T11:20:46.662Z,1.25
2024-04-10T11:23:52.700Z,1.05
2024-04-10T11:26:58.180Z,1.00
2024-04-10T11:30:04.904Z,1.13
2024-04-10T11:33:08.749Z,1.00
2024-04-10T11:36:14.644Z,0.80
2024-04-10T11:39:20.573Z,0.77
2024-04-10T11:42:26.414Z,0.90
2024-04-10T11:45:31.842Z,0.75
2024-04-10T11:48:34.644Z,1.25
2024-04-10T11:51:39.912Z,1.08
2024-04-10T11:54:42.515Z,1.33
2024-04-10T11:57:50.418Z,0.90
2024-04-10T12:00:53.900Z,0.95
2024-04-10T12:03:59.707Z,1.05
2024-04-10T12:07:05.014Z,1.05
2024-04-10T12:10:08.617Z,1.10
2024-04-10T12:13:16.811Z,1.05
2024-04-10T12:16:19.402Z,1.50
2024-04-10T12:19:27.787Z,1.00
2024-04-10T12:22:36.534Z,1.25
2024-04-10T12:25:39.366Z,0.90
2024-04-10T12:28:49.332Z,0.90
2024-04-10T12:31:52.495Z,0.93
2024-04-10T12:35:18.273Z,0.90
2024-04-10T12:38:21.485Z,0.90
2024-04-10T12:41:26.790Z,1.00
2024-04-10T12:44:41.426Z,1.17
2024-04-10T12:47:46.746Z,1.08
2024-04-10T12:50:53.059Z,1.02
2024-04-10T12:53:58.662Z,0.70
2024-04-10T12:57:01.585Z,1.05
2024-04-10T13:00:10.788Z,1.27
2024-04-10T13:03:13.493Z,0.80
2024-04-10T13:06:19.961Z,1.05
2024-04-10T13:09:22.572Z,1.10
2024-04-10T13:12:27.957Z,0.95
2024-04-10T13:15:35.970Z,0.85
2024-04-10T13:18:39.102Z,1.17
2024-04-10T13:21:44.856Z,0.80
2024-04-10T13:24:47.434Z,1.20
2024-04-10T13:27:52.896Z,0.90
2024-04-10T13:31:09.938Z,1.52
2024-04-10T13:34:15.667Z,0.63
2024-04-10T13:37:26.767Z,0.93
2024-04-10T13:40:39.581Z,0.90
2024-04-10T13:43:43.538Z,1.10
2024-04-10T13:46:51.557Z,1.27
2024-04-10T13:49:56.978Z,1.15
2024-04-10T13:53:00.174Z,1.00
2024-04-10T13:56:10.270Z,1.42
2024-04-10T13:59:13.172Z,1.17
2024-04-10T14:02:21.411Z,1.00
2024-04-10T14:05:24.436Z,1.70
2024-04-10T14:08:31.565Z,1.30
2024-04-10T14:11:37.151Z,1.40
2024-04-10T14:14:42.578Z,1.10
2024-04-10T14:17:48.669Z,1.25
2024-04-10T14:21:05.060Z,1.35
2024-04-10T14:24:11.417Z,1.10
2024-04-10T14:27:16.803Z,0.88
2024-04-10T14:30:22.074Z,1.13
2024-04-10T14:33:29.124Z,1.15
2024-04-10T14:36:38.556Z,1.30
2024-04-10T14:39:41.284Z,1.17
2024-04-10T14:42:47.350Z,1.42
2024-04-10T14:45:53.099Z,1.13
2024-04-10T14:49:01.333Z,0.85
2024-04-10T14:52:04.655Z,1.05
2024-04-10T14:55:09.945Z,0.77
2024-04-10T14:58:12.855Z,0.90
2024-04-10T15:01:18.603Z,0.98
2024-04-10T15:04:27.272Z,1.10
2024-04-10T15:07:36.286Z,0.93
2024-04-10T15:10:44.577Z,1.15
2024-04-10T15:13:47.203Z,0.88
2024-04-10T15:16:52.773Z,1.10
2024-04-10T15:19:58.266Z,0.90
2024-04-10T15:23:03.442Z,1.30
2024-04-10T15:26:09.617Z,1.13
2024-04-10T15:29:15.055Z,1.10
2024-04-10T15:32:20.319Z,1.00
2024-04-10T15:35:29.689Z,0.90
2024-04-10T15:38:33.402Z,1.70
2024-04-10T15:41:39.346Z,0.75
2024-04-10T15:44:42.345Z,0.73
2024-04-10T15:47:49.083Z,1.02
2024-04-10T15:50:55.117Z,0.80
2024-04-10T15:54:01.024Z,1.20
2024-04-10T15:57:04.717Z,0.65
2024-04-10T16:00:10.967Z,0.60
2024-04-10T16:03:13.893Z,0.80
2024-04-10T16:06:23.552Z,1.13
2024-04-10T16:09:31.995Z,0.80
2024-04-10T16:12:37.378Z,0.82
2024-04-10T16:15:40.034Z,0.88
2024-04-10T16:18:45.856Z,0.95
2024-04-10T16:21:51.150Z,0.80
2024-04-10T16:24:57.093Z,0.65
2024-04-10T16:28:02.694Z,0.70
2024-04-10T16:31:06.802Z,1.08
2024-04-10T16:34:12.455Z,0.90
2024-04-10T16:37:17.902Z,0.93
2024-04-10T16:40:23.902Z,0.90
2024-04-10T16:43:26.474Z,0.77
2024-04-10T16:46:31.900Z,1.08
2024-04-10T16:49:35.754Z,1.30
2024-04-10T16:52:43.723Z,1.00
2024-04-10T16:55:46.571Z,1.10
2024-04-10T16:58:51.759Z,1.02
2024-04-10T17:01:54.444Z,0.80
2024-04-10T17:04:59.801Z,1.08
2024-04-10T17:08:07.282Z,1.30
2024-04-10T17:11:20.803Z,1.00
2024-04-10T17:14:31.641Z,1.13
2024-04-10T17:17:58.168Z,1.00
2024-04-10T17:21:20.868Z,0.80
2024-04-10T17:24:33.532Z,1.13
2024-04-10T17:27:38.902Z,1.10
2024-04-10T17:30:44.366Z,1.10
2024-04-10T17:33:49.666Z,1.42
2024-04-10T17:36:59.054Z,1.02
2024-04-10T17:40:07.192Z,1.05
2024-04-10T17:43:09.792Z,1.10
2024-04-10T17:46:16.781Z,0.80
2024-04-10T17:49:22.223Z,1.10
2024-04-10T17:52:25.129Z,1.00
2024-04-10T17:55:33.072Z,1.13
2024-04-10T17:58:35.630Z,1.30
2024-04-10T18:01:41.299Z,1.20
2024-04-10T18:04:45.464Z,1.05
2024-04-10T18:07:54.541Z,0.90
2024-04-10T18:10:59.921Z,1.20
2024-04-10T18:14:05.083Z,0.93
2024-04-10T18:17:07.779Z,1.75
2024-04-10T18:20:14.143Z,1.30
2024-04-10T18:23:16.880Z,1.00
2024-04-10T18:26:24.859Z,1.30
2024-04-10T18:29:30.153Z,1.48
2024-04-10T18:32:34.484Z,1.58
2024-04-10T18:35:39.827Z,1.52
2024-04-10T18:38:43.223Z,1.00
2024-04-10T18:41:51.488Z,1.52
2024-04-10T18:44:54.238Z,1.40
2024-04-10T18:47:59.669Z,2.05
2024-04-10T18:51:12.359Z,1.77
2024-04-10T18:54:23.203Z,1.35
2024-04-10T18:57:31.619Z,1.20
2024-04-10T19:00:35.857Z,1.45
2024-04-10T19:03:42.730Z,1.30
2024-04-10T19:06:52.377Z,1.40
2024-04-10T19:09:58.574Z,1.40
2024-04-10T19:13:03.932Z,1.30
2024-04-10T19:16:09.315Z,1.10
2024-04-10T19:19:12.284Z,1.75
2024-04-10T19:22:17.847Z,1.45
2024-04-10T19:25:20.641Z,1.45
2024-04-10T19:28:29.235Z,1.50
2024-04-10T19:31:46.780Z,1.42
2024-04-10T19:34:52.675Z,1.70
2024-04-10T19:37:55.512Z,1.40
2024-04-10T19:41:04.100Z,1.80
2024-04-10T19:44:09.421Z,1.23
2024-04-10T19:47:14.889Z,1.77
2024-04-10T19:50:17.657Z,1.70
2024-04-10T19:53:23.368Z,1.73
2024-04-10T19:56:27.007Z,1.85
2024-04-10T19:59:36.051Z,1.60
2024-04-10T20:02:39.109Z,1.60
2024-04-10T20:05:45.061Z,1.35
2024-04-10T20:08:52.158Z,1.65
2024-04-10T20:12:00.702Z,1.40
2024-04-10T20:15:06.166Z,1.58
2024-04-10T20:18:11.726Z,1.50
2024-04-10T20:21:19.042Z,1.30
2024-04-10T20:24:21.763Z,1.83
2024-04-10T20:27:27.004Z,1.30
2024-04-10T20:30:35.549Z,1.77
2024-04-10T20:33:39.401Z,1.58
2024-04-10T20:36:44.723Z,1.70
2024-04-10T20:39:52.726Z,1.13
2024-04-10T20:43:08.299Z,1.48
2024-04-10T20:46:19.532Z,1.10
2024-04-10T20:49:25.315Z,1.98
2024-04-10T20:52:32.059Z,1.50
2024-04-10T20:55:34.687Z,1.65
2024-04-10T20:58:40.434Z,1.15
2024-04-10T21:01:48.545Z,1.60
2024-04-10T21:04:56.164Z,1.88
2024-04-10T21:08:18.279Z,1.30
2024-04-10T21:11:39.763Z,1.60
2024-04-10T21:15:02.247Z,1.27
2024-04-10T21:18:26.591Z,1.10
2024-04-10T21:21:48.340Z,1.30
2024-04-10T21:25:09.514Z,1.50
2024-04-10T21:28:31.077Z,1.30
2024-04-10T21:31:53.223Z,1.50
2024-04-10T21:35:17.405Z,1.35
2024-04-10T21:38:38.960Z,1.45
2024-04-10T21:42:03.765Z,1.63
2024-04-10T21:45:26.258Z,1.40
2024-04-10T21:48:48.233Z,1.70
2024-04-10T21:52:12.198Z,1.10
2024-04-10T21:55:33.189Z,1.35
2024-04-10T21:58:54.679Z,1.40
2024-04-10T22:02:17.859Z,1.40
2024-04-10T22:05:41.967Z,1.65
2024-04-10T22:09:06.110Z,1.35
2024-04-10T22:12:11.647Z,1.10
2024-04-10T22:15:19.109Z,1.23
2024-04-10T22:18:40.780Z,1.77
2024-04-10T22:22:01.933Z,1.33
2024-04-10T22:25:10.067Z,1.35
2024-04-10T22:28:15.946Z,1.42
2024-04-10T22:31:21.297Z,1.58
2024-04-10T22:34:26.606Z,1.50
2024-04-10T22:37:29.342Z,1.42
2024-04-10T22:40:40.709Z,1.58
2024-04-10T22:43:49.747Z,1.40
2024-04-10T22:46:52.330Z,1.40
2024-04-10T22:49:57.824Z,1.48
2024-04-10T22:53:00.448Z,1.27
2024-04-10T22:56:08.523Z,1.45
2024-04-10T22:59:14.766Z,1.95
2024-04-10T23:02:21.348Z,1.75
2024-04-10T23:05:44.412Z,1.42
2024-04-10T23:08:52.825Z,1.63
2024-04-10T23:11:58.363Z,2.30
2024-04-10T23:15:03.904Z,2.42
2024-04-10T23:18:09.595Z,2.47
2024-04-10T23:21:17.660Z,1.88
2024-04-10T23:24:20.180Z,2.08
2024-04-10T23:27:27.978Z,2.30
2024-04-10T23:30:31.183Z,2.40
2024-04-10T23:33:37.316Z,2.47
2024-04-10T23:36:42.975Z,2.50
2024-04-10T23:39:48.327Z,2.42
2024-04-10T23:42:53.675Z,2.55
2024-04-10T23:45:59.551Z,2.40
2024-04-10T23:49:04.915Z,3.05
2024-04-10T23:52:09.642Z,2.47
2024-04-10T23:55:16.534Z,2.75
2024-04-10T23:58:24.287Z,2.45
